createdAt,value
2018-01-25T00:00:42.320Z,1.70
2018-01-25T00:03:11.542Z,2.22
2018-01-25T00:05:39.178Z,1.90
2018-01-25T00:08:06.901Z,2.08
2018-01-25T00:10:34.606Z,1.85
2018-01-25T00:13:02.340Z,2.05
2018-01-25T00:15:29.927Z,2.10
2018-01-25T00:17:57.597Z,2.15
2018-01-25T00:20:25.129Z,2.00
2018-01-25T00:22:52.642Z,2.20
2018-01-25T00:25:20.578Z,2.22
2018-01-25T00:27:48.253Z,1.65
2018-01-25T00:30:15.796Z,2.40
2018-01-25T00:32:44.277Z,1.73
2018-01-25T00:35:11.853Z,2.08
2018-01-25T00:37:39.599Z,2.00
2018-01-25T00:40:07.097Z,1.90
2018-01-25T00:42:34.614Z,1.60
2018-01-25T00:45:02.176Z,1.70
2018-01-25T00:47:29.675Z,2.28
2018-01-25T00:49:57.465Z,1.60
2018-01-25T00:52:25.001Z,2.05
2018-01-25T00:54:52.617Z,1.60
2018-01-25T00:57:20.161Z,1.70
2018-01-25T00:59:47.666Z,1.90
2018-01-25T01:02:15.228Z,1.27
2018-01-25T01:04:42.737Z,1.77
2018-01-25T01:07:11.231Z,1.92
2018-01-25T01:09:39.847Z,1.30
2018-01-25T01:12:07.372Z,2.00
2018-01-25T01:14:34.932Z,1.83
2018-01-25T01:17:02.441Z,1.80
2018-01-25T01:19:29.941Z,1.45
2018-01-25T01:21:57.508Z,1.20
2018-01-25T01:24:25.004Z,1.67
2018-01-25T01:26:52.537Z,1.33
2018-01-25T01:29:20.123Z,1.60
2018-01-25T01:31:47.654Z,1.50
2018-01-25T01:34:15.189Z,1.25
2018-01-25T01:36:42.698Z,1.35
2018-01-25T01:39:10.249Z,1.73
2018-01-25T01:41:38.685Z,1.25
2018-01-25T01:44:06.186Z,1.42
2018-01-25T01:46:33.741Z,1.55
2018-01-25T01:49:01.241Z,1.45
2018-01-25T01:51:29.008Z,1.60
2018-01-25T01:53:56.518Z,1.98
2018-01-25T01:56:24.051Z,2.33
2018-01-25T01:58:51.609Z,1.77
2018-01-25T02:01:19.112Z,1.65
2018-01-25T02:03:46.652Z,1.60
2018-01-25T02:06:14.186Z,2.10
2018-01-25T02:08:41.697Z,1.60
2018-01-25T02:11:09.225Z,2.10
2018-01-25T02:13:36.760Z,1.80
2018-01-25T02:16:04.524Z,1.98
2018-01-25T02:18:32.026Z,2.00
2018-01-25T02:20:59.549Z,2.05
2018-01-25T02:23:27.113Z,2.30
2018-01-25T02:25:54.659Z,2.42
2018-01-25T02:28:22.204Z,1.95
2018-01-25T02:30:49.715Z,1.80
2018-01-25T02:33:17.239Z,1.85
2018-01-25T02:35:44.767Z,2.10
2018-01-25T02:38:12.277Z,2.15
2018-01-25T02:40:39.833Z,1.75
2018-01-25T02:43:07.341Z,1.85
2018-01-25T02:45:34.870Z,2.47
2018-01-25T02:48:02.402Z,1.98
2018-01-25T02:50:29.910Z,2.00
2018-01-25T02:52:57.604Z,2.10
2018-01-25T02:55:25.113Z,2.20
2018-01-25T02:57:52.621Z,2.40
2018-01-25T03:00:20.187Z,1.62
2018-01-25T03:02:47.681Z,1.80
2018-01-25T03:05:15.504Z,1.77
2018-01-25T03:07:43.005Z,2.12
2018-01-25T03:10:11.032Z,2.30
2018-01-25T03:12:38.589Z,2.20
2018-01-25T03:15:06.089Z,2.12
2018-01-25T03:17:33.638Z,2.35
2018-01-25T03:20:01.166Z,1.92
2018-01-25T03:22:28.727Z,2.42
2018-01-25T03:24:56.692Z,1.95
2018-01-25T03:27:24.192Z,2.40
2018-01-25T03:29:52.030Z,2.20
2018-01-25T03:32:19.582Z,2.50
2018-01-25T03:34:47.085Z,1.95
2018-01-25T03:37:14.617Z,2.37
2018-01-25T03:39:42.150Z,2.25
2018-01-25T03:42:10.016Z,2.40
2018-01-25T03:44:37.515Z,2.42
2018-01-25T03:47:05.544Z,2.67
2018-01-25T03:49:33.207Z,2.30
2018-01-25T03:52:00.774Z,2.55
2018-01-25T03:54:28.564Z,2.70
2018-01-25T03:56:56.089Z,2.40
2018-01-25T03:59:23.586Z,2.42
2018-01-25T04:01:51.125Z,2.05
2018-01-25T04:04:18.624Z,2.37
2018-01-25T04:06:46.291Z,2.40
2018-01-25T04:09:13.797Z,2.03
2018-01-25T04:11:41.338Z,2.65
2018-01-25T04:14:08.900Z,2.80
2018-01-25T04:16:36.409Z,2.78
2018-01-25T04:19:04.096Z,2.37
2018-01-25T04:21:31.592Z,2.60
2018-01-25T04:23:59.138Z,2.37
2018-01-25T04:26:26.736Z,2.78
2018-01-25T04:28:54.257Z,2.22
2018-01-25T04:31:21.824Z,2.22
2018-01-25T04:33:49.372Z,2.20
2018-01-25T04:36:16.877Z,2.45
2018-01-25T04:38:44.404Z,2.75
2018-01-25T04:41:11.908Z,2.10
2018-01-25T04:43:39.541Z,2.62
2018-01-25T04:46:07.048Z,2.10
2018-01-25T04:48:34.553Z,2.25
2018-01-25T04:51:02.090Z,2.87
2018-01-25T04:53:29.592Z,2.58
2018-01-25T04:55:57.251Z,3.22
2018-01-25T04:58:24.757Z,2.78
2018-01-25T05:00:52.264Z,2.50
2018-01-25T05:03:19.802Z,3.87
2018-01-25T05:05:47.334Z,2.47
2018-01-25T05:08:14.878Z,2.62
2018-01-25T05:10:42.380Z,2.70
2018-01-25T05:13:09.888Z,2.45
2018-01-25T05:15:37.423Z,2.50
2018-01-25T05:18:04.932Z,2.75
2018-01-25T05:20:32.469Z,3.05
2018-01-25T05:22:59.975Z,2.30
2018-01-25T05:25:27.552Z,3.25
2018-01-25T05:27:55.065Z,2.47
2018-01-25T05:30:22.589Z,2.95
2018-01-25T05:32:50.178Z,2.40
2018-01-25T05:35:17.738Z,3.10
2018-01-25T05:37:45.477Z,2.83
2018-01-25T05:40:12.977Z,2.95
2018-01-25T05:42:40.517Z,2.70
2018-01-25T05:45:08.149Z,2.80
2018-01-25T05:47:35.681Z,3.28
2018-01-25T05:50:03.369Z,2.95
2018-01-25T05:52:30.887Z,3.08
2018-01-25T05:54:58.397Z,3.30
2018-01-25T05:57:25.930Z,3.67
2018-01-25T05:59:53.437Z,2.75
2018-01-25T06:02:21.001Z,3.45
2018-01-25T06:04:48.505Z,2.80
2018-01-25T06:07:16.008Z,2.72
2018-01-25T06:09:43.565Z,3.65
2018-01-25T06:12:11.073Z,3.55
2018-01-25T06:14:38.616Z,4.65
2018-01-25T06:17:06.126Z,2.65
2018-01-25T06:19:33.633Z,2.60
2018-01-25T06:22:01.160Z,3.15
2018-01-25T06:24:28.715Z,3.00
2018-01-25T06:26:56.269Z,2.83
2018-01-25T06:29:23.776Z,3.35
2018-01-25T06:31:51.276Z,3.15
2018-01-25T06:34:18.799Z,3.47
2018-01-25T06:36:46.309Z,3.10
2018-01-25T06:39:13.969Z,3.08
2018-01-25T06:41:41.527Z,3.25
2018-01-25T06:44:09.033Z,3.72
2018-01-25T06:46:36.565Z,3.53
2018-01-25T06:49:04.102Z,3.00
2018-01-25T06:51:31.865Z,3.95
2018-01-25T06:53:59.425Z,3.00
2018-01-25T06:56:26.930Z,3.25
2018-01-25T06:58:54.480Z,2.67
2018-01-25T07:01:21.985Z,3.12
2018-01-25T07:03:49.559Z,2.45
2018-01-25T07:06:17.059Z,2.70
2018-01-25T07:08:44.567Z,2.60
2018-01-25T07:11:12.119Z,3.20
2018-01-25T07:13:39.620Z,3.40
2018-01-25T07:16:07.184Z,3.67
2018-01-25T07:18:34.688Z,3.40
2018-01-25T07:21:02.186Z,3.50
2018-01-25T07:23:29.713Z,3.55
2018-01-25T07:25:57.216Z,3.40
2018-01-25T07:28:24.946Z,3.50
2018-01-25T07:30:52.445Z,3.62
2018-01-25T07:33:20.166Z,3.25
2018-01-25T07:35:48.137Z,3.65
2018-01-25T07:38:16.215Z,3.00
2018-01-25T07:40:43.868Z,3.20
2018-01-25T07:43:11.368Z,3.22
2018-01-25T07:45:38.884Z,3.20
2018-01-25T07:48:06.425Z,3.40
2018-01-25T07:50:33.934Z,2.83
2018-01-25T07:53:01.663Z,3.42
2018-01-25T07:55:29.222Z,3.20
2018-01-25T08:00:55.409Z,3.22
2018-01-25T08:03:23.182Z,3.00
2018-01-25T08:05:50.693Z,3.00
2018-01-25T08:08:18.245Z,3.20
2018-01-25T08:10:45.808Z,2.90
2018-01-25T08:13:18.823Z,3.20
2018-01-25T08:15:46.370Z,2.87
2018-01-25T08:18:13.916Z,3.12
2018-01-25T08:20:41.904Z,2.95
2018-01-25T08:23:09.449Z,2.90
2018-01-25T08:25:36.952Z,2.80
2018-01-25T08:28:05.386Z,3.92
2018-01-25T08:30:33.742Z,3.55
2018-01-25T08:33:01.626Z,3.00
2018-01-25T08:35:29.184Z,3.05
2018-01-25T08:37:56.696Z,2.80
2018-01-25T08:40:24.228Z,2.70
2018-01-25T08:42:51.758Z,3.47
2018-01-25T08:45:19.493Z,2.97
2018-01-25T08:47:47.001Z,2.95
2018-01-25T08:50:14.504Z,2.85
2018-01-25T08:52:42.038Z,2.70
2018-01-25T08:55:09.550Z,3.30
2018-01-25T08:57:37.236Z,2.90
2018-01-25T09:00:04.775Z,3.47
2018-01-25T09:02:32.285Z,3.10
2018-01-25T09:04:59.811Z,3.20
2018-01-25T09:07:27.350Z,3.25
2018-01-25T09:09:55.124Z,2.60
2018-01-25T09:12:22.636Z,3.17
2018-01-25T09:14:50.153Z,2.70
2018-01-25T09:17:17.709Z,2.47
2018-01-25T09:19:45.248Z,3.58
2018-01-25T09:22:13.122Z,3.03
2018-01-25T09:24:40.634Z,2.97
2018-01-25T09:27:08.150Z,3.20
2018-01-25T09:29:35.705Z,3.27
2018-01-25T09:32:03.220Z,3.00
2018-01-25T09:34:30.809Z,3.60
2018-01-25T09:36:58.369Z,3.50
2018-01-25T09:39:25.873Z,3.60
2018-01-25T09:41:53.402Z,3.10
2018-01-25T09:44:20.942Z,4.20
2018-01-25T09:46:48.503Z,3.30
2018-01-25T09:49:16.009Z,3.63
2018-01-25T09:51:43.700Z,3.60
2018-01-25T09:54:11.293Z,4.00
2018-01-25T09:56:38.841Z,3.77
2018-01-25T09:59:06.588Z,4.80
2018-01-25T10:01:34.085Z,3.57
2018-01-25T10:04:01.586Z,4.40
2018-01-25T10:06:29.115Z,4.47
2018-01-25T10:08:56.623Z,3.87
2018-01-25T10:11:24.298Z,4.70
2018-01-25T10:13:51.804Z,4.30
2018-01-25T10:16:19.328Z,4.20
2018-01-25T10:18:46.873Z,4.40
2018-01-25T10:21:14.372Z,3.47
2018-01-25T10:23:41.933Z,5.50
2018-01-25T10:26:09.448Z,4.50
2018-01-25T10:28:36.965Z,4.17
2018-01-25T10:31:04.489Z,3.60
2018-01-25T10:33:32.946Z,3.63
2018-01-25T10:36:00.844Z,4.50
2018-01-25T10:38:28.373Z,4.47
2018-01-25T10:40:55.944Z,3.90
2018-01-25T10:43:23.499Z,3.10
2018-01-25T10:45:51.116Z,3.63
2018-01-25T10:48:18.745Z,4.20
2018-01-25T10:50:46.261Z,3.77
2018-01-25T10:53:13.942Z,4.00
2018-01-25T10:55:42.411Z,3.33
2018-01-25T10:58:09.924Z,4.50
2018-01-25T11:00:43.008Z,5.63
2018-01-25T11:03:10.514Z,4.10
2018-01-25T11:05:38.023Z,4.20
2018-01-25T11:08:06.043Z,4.20
2018-01-25T11:10:33.553Z,3.73
2018-01-25T11:13:01.101Z,4.00
2018-01-25T11:15:28.613Z,3.97
2018-01-25T11:17:56.116Z,3.13
2018-01-25T11:20:23.647Z,3.47
2018-01-25T11:22:51.158Z,3.30
2018-01-25T11:25:18.695Z,2.70
2018-01-25T11:27:46.236Z,3.30
2018-01-25T11:30:13.923Z,3.00
2018-01-25T11:32:42.169Z,3.37
2018-01-25T11:35:09.676Z,3.23
2018-01-25T11:37:37.254Z,3.80
2018-01-25T11:40:04.765Z,3.43
2018-01-25T11:42:32.271Z,3.17
2018-01-25T11:44:59.797Z,3.43
2018-01-25T11:47:27.317Z,3.80
2018-01-25T11:49:54.888Z,3.30
2018-01-25T11:52:22.416Z,3.67
2018-01-25T11:54:49.979Z,3.50
2018-01-25T11:57:17.532Z,2.90
2018-01-25T11:59:45.490Z,4.53
2018-01-25T12:02:13.061Z,3.90
2018-01-25T12:04:40.621Z,3.50
2018-01-25T12:07:08.095Z,3.30
2018-01-25T12:09:35.695Z,3.63
2018-01-25T12:12:03.403Z,3.60
2018-01-25T12:14:31.163Z,3.80
2018-01-25T12:16:58.668Z,3.90
2018-01-25T12:19:26.192Z,3.67
2018-01-25T12:21:53.747Z,3.70
2018-01-25T12:24:22.324Z,3.43
2018-01-25T12:26:50.085Z,3.60
2018-01-25T12:29:18.547Z,4.40
2018-01-25T12:31:46.077Z,4.30
2018-01-25T12:34:13.608Z,3.20
2018-01-25T12:36:41.142Z,3.80
2018-01-25T12:39:08.796Z,2.60
2018-01-25T12:41:36.305Z,4.30
2018-01-25T12:44:03.825Z,3.57
2018-01-25T12:46:32.103Z,3.77
2018-01-25T12:48:59.658Z,3.60
2018-01-25T12:51:27.209Z,3.90
2018-01-25T12:53:54.708Z,3.30
2018-01-25T12:56:22.218Z,3.33
2018-01-25T12:58:49.757Z,3.80
2018-01-25T13:01:17.273Z,3.50
2018-01-25T13:03:45.152Z,3.60
2018-01-25T13:06:12.875Z,3.40
2018-01-25T13:08:40.377Z,4.70
2018-01-25T13:11:07.904Z,3.50
2018-01-25T13:13:35.452Z,4.47
2018-01-25T13:16:03.013Z,4.27
2018-01-25T13:18:30.570Z,4.07
2018-01-25T13:20:58.074Z,3.87
2018-01-25T13:23:25.698Z,3.80
2018-01-25T13:25:53.249Z,3.87
2018-01-25T13:28:21.010Z,3.40
2018-01-25T13:30:48.982Z,3.80
2018-01-25T13:33:22.244Z,3.53
2018-01-25T13:35:49.751Z,4.47
2018-01-25T13:38:17.254Z,3.80
2018-01-25T13:40:44.792Z,3.40
2018-01-25T13:43:12.297Z,3.20
2018-01-25T13:45:39.876Z,3.97
2018-01-25T13:48:07.370Z,3.77
2018-01-25T13:50:34.878Z,3.40
2018-01-25T13:53:02.408Z,3.17
2018-01-25T13:55:29.913Z,3.10
2018-01-25T13:57:57.660Z,3.20
2018-01-25T14:00:25.219Z,4.07
2018-01-25T14:02:52.725Z,4.10
2018-01-25T14:05:20.261Z,4.23
2018-01-25T14:07:47.772Z,3.03
2018-01-25T14:10:15.557Z,4.20
2018-01-25T14:12:43.119Z,2.70
2018-01-25T14:15:10.679Z,3.80
2018-01-25T14:17:38.237Z,3.23
2018-01-25T14:20:05.797Z,3.60
2018-01-25T14:22:33.558Z,2.63
2018-01-25T14:25:01.086Z,2.70
2018-01-25T14:27:28.610Z,4.80
2018-01-25T14:29:56.309Z,3.60
2018-01-25T14:32:23.846Z,2.60
2018-01-25T14:34:51.407Z,2.73
2018-01-25T14:37:18.909Z,4.00
2018-01-25T14:39:46.516Z,2.87
2018-01-25T14:42:14.043Z,2.70
2018-01-25T14:44:41.591Z,3.20
2018-01-25T14:47:09.140Z,3.10
2018-01-25T14:49:36.813Z,3.53
2018-01-25T14:52:04.321Z,3.50
2018-01-25T14:54:32.023Z,3.80
2018-01-25T14:56:59.514Z,3.40
2018-01-25T14:59:27.152Z,3.23
2018-01-25T15:01:54.709Z,3.47
2018-01-25T15:04:22.248Z,3.50
2018-01-25T15:06:49.774Z,3.17
2018-01-25T15:09:17.381Z,3.07
2018-01-25T15:11:44.913Z,3.77
2018-01-25T15:14:12.507Z,2.83
2018-01-25T15:16:40.025Z,3.80
2018-01-25T15:19:07.558Z,3.50
2018-01-25T15:21:35.142Z,3.50
2018-01-25T15:24:02.867Z,4.13
2018-01-25T15:26:30.385Z,3.60
2018-01-25T15:28:57.901Z,4.03
2018-01-25T15:31:25.433Z,3.37
2018-01-25T15:33:53.369Z,3.70
2018-01-25T15:36:20.913Z,4.53
2018-01-25T15:38:48.611Z,3.93
2018-01-25T15:41:16.189Z,3.40
2018-01-25T15:43:43.776Z,3.47
2018-01-25T15:46:11.314Z,3.87
2018-01-25T15:48:38.880Z,4.63
2018-01-25T15:51:06.407Z,5.43
2018-01-25T15:53:33.931Z,4.20
2018-01-25T15:56:01.481Z,4.40
2018-01-25T15:58:29.187Z,5.90
2018-01-25T16:00:56.745Z,5.50
2018-01-25T16:03:24.320Z,5.30
2018-01-25T16:05:51.864Z,4.57
2018-01-25T16:08:21.676Z,4.37
2018-01-25T16:10:49.236Z,4.70
2018-01-25T16:13:17.203Z,4.50
2018-01-25T16:15:44.763Z,5.10
2018-01-25T16:18:18.368Z,4.70
2018-01-25T16:20:45.879Z,7.93
2018-01-25T16:23:13.390Z,6.37
2018-01-25T16:25:40.952Z,7.23
2018-01-25T16:28:08.905Z,6.73
2018-01-25T16:30:36.876Z,8.60
2018-01-25T16:33:04.616Z,7.27
2018-01-25T16:35:32.202Z,6.57
2018-01-25T16:37:59.758Z,6.13
2018-01-25T16:40:28.078Z,5.60
2018-01-25T16:42:55.672Z,5.18
2018-01-25T16:45:23.441Z,5.60
2018-01-25T16:47:51.226Z,6.15
2018-01-25T16:50:18.805Z,5.80
2018-01-25T16:52:46.381Z,5.77
2018-01-25T16:55:14.211Z,6.60
2018-01-25T16:57:41.744Z,6.15
2018-01-25T17:00:09.288Z,5.82
2018-01-25T17:02:36.887Z,4.73
2018-01-25T17:05:04.558Z,6.00
2018-01-25T17:07:32.226Z,4.53
2018-01-25T17:10:00.127Z,5.32
2018-01-25T17:12:28.046Z,5.18
2018-01-25T17:14:56.014Z,6.18
2018-01-25T17:17:23.784Z,5.60
2018-01-25T17:19:51.849Z,5.62
2018-01-25T17:22:19.571Z,4.45
2018-01-25T17:24:47.274Z,5.60
2018-01-25T17:27:15.141Z,5.55
2018-01-25T17:29:43.007Z,5.85
2018-01-25T17:32:11.089Z,5.40
2018-01-25T17:34:38.863Z,5.28
2018-01-25T17:37:07.121Z,5.78
2018-01-25T17:39:34.781Z,7.68
2018-01-25T17:42:02.439Z,6.35
2018-01-25T17:44:31.442Z,5.72
2018-01-25T17:46:59.404Z,7.20
2018-01-25T17:49:28.100Z,6.80
2018-01-25T17:51:56.059Z,5.87
2018-01-25T17:54:23.655Z,6.20
2018-01-25T17:56:51.608Z,6.55
2018-01-25T17:59:19.562Z,5.75
2018-01-25T18:01:47.333Z,7.05
2018-01-25T18:04:15.866Z,13.98
2018-01-25T18:06:44.176Z,10.60
2018-01-25T18:09:12.151Z,8.38
2018-01-25T18:11:40.218Z,8.65
2018-01-25T18:14:07.986Z,9.27
2018-01-25T18:16:36.011Z,8.43
2018-01-25T18:19:03.714Z,7.37
2018-01-25T18:21:32.729Z,6.47
2018-01-25T18:24:00.734Z,5.15
2018-01-25T18:26:28.747Z,6.80
2018-01-25T18:28:57.319Z,5.43
2018-01-25T18:31:25.197Z,5.65
2018-01-25T18:33:53.017Z,5.53
2018-01-25T18:36:20.851Z,4.65
2018-01-25T18:38:48.918Z,5.32
2018-01-25T18:41:16.764Z,4.53
2018-01-25T18:43:45.143Z,5.20
2018-01-25T18:46:13.316Z,5.70
2018-01-25T18:48:41.287Z,5.60
2018-01-25T18:51:09.221Z,5.45
2018-01-25T18:53:38.041Z,6.72
2018-01-25T18:56:06.011Z,6.05
2018-01-25T18:58:34.184Z,5.18
2018-01-25T19:01:02.887Z,5.60
2018-01-25T19:03:30.737Z,6.25
2018-01-25T19:05:58.947Z,6.40
2018-01-25T19:08:26.912Z,6.37
2018-01-25T19:10:56.505Z,4.68
2018-01-25T19:13:24.373Z,4.95
2018-01-25T19:15:52.333Z,5.18
2018-01-25T19:18:20.289Z,4.70
2018-01-25T19:20:48.273Z,5.93
2018-01-25T19:23:16.446Z,5.55
2018-01-25T19:25:44.257Z,5.20
2018-01-25T19:28:12.166Z,8.00
2018-01-25T19:30:40.133Z,5.70
2018-01-25T19:33:08.282Z,5.35
2018-01-25T19:35:36.583Z,4.87
2018-01-25T19:38:04.358Z,5.72
2018-01-25T19:40:32.121Z,6.18
2018-01-25T19:42:59.978Z,5.50
2018-01-25T19:45:27.847Z,5.35
2018-01-25T19:47:56.235Z,5.82
2018-01-25T19:50:24.153Z,5.45
2018-01-25T19:52:52.058Z,6.07
2018-01-25T19:55:19.951Z,6.45
2018-01-25T19:57:47.858Z,5.12
2018-01-25T20:00:16.578Z,6.43
2018-01-25T20:02:44.346Z,6.82
2018-01-25T20:05:13.234Z,5.20
2018-01-25T20:07:41.929Z,6.75
2018-01-25T20:10:10.161Z,6.72
2018-01-25T20:12:38.267Z,6.25
2018-01-25T20:15:06.234Z,6.62
2018-01-25T20:17:34.011Z,7.25
2018-01-25T20:20:01.970Z,6.75
2018-01-25T20:22:30.349Z,6.80
2018-01-25T20:24:58.419Z,6.43
2018-01-25T20:27:26.751Z,7.55
2018-01-25T20:29:54.664Z,8.40
2018-01-25T20:32:22.591Z,6.25
2018-01-25T20:34:50.357Z,6.12
2018-01-25T20:37:19.490Z,5.85
2018-01-25T20:39:47.610Z,6.45
2018-01-25T20:42:15.844Z,6.62
2018-01-25T20:44:44.197Z,6.43
2018-01-25T20:47:12.040Z,7.25
2018-01-25T20:49:39.847Z,7.18
2018-01-25T20:52:07.918Z,7.10
2018-01-25T20:54:35.699Z,7.47
2018-01-25T20:57:03.570Z,6.87
2018-01-25T20:59:31.414Z,8.18
2018-01-25T21:01:59.489Z,6.70
2018-01-25T21:04:27.561Z,7.03
2018-01-25T21:06:55.525Z,6.20
2018-01-25T21:09:23.385Z,6.15
2018-01-25T21:11:51.172Z,7.00
2018-01-25T21:14:19.232Z,6.72
2018-01-25T21:16:47.011Z,7.07
2018-01-25T21:19:14.959Z,7.30
2018-01-25T21:21:43.621Z,6.18
2018-01-25T21:24:11.411Z,6.40
2018-01-25T21:26:40.609Z,6.50
2018-01-25T21:29:08.385Z,5.68
2018-01-25T21:31:36.565Z,6.30
2018-01-25T21:34:10.869Z,6.68
2018-01-25T21:36:38.729Z,7.68
2018-01-25T21:39:06.989Z,5.10
2018-01-25T21:41:35.071Z,6.50
2018-01-25T21:44:02.742Z,5.93
2018-01-25T21:46:31.490Z,5.55
2018-01-25T21:48:59.359Z,6.30
2018-01-25T21:51:27.565Z,5.60
2018-01-25T21:53:55.329Z,5.68
2018-01-25T21:56:22.940Z,5.55
2018-01-25T21:58:50.634Z,5.55
2018-01-25T22:01:18.261Z,5.43
2018-01-25T22:03:45.854Z,5.35
2018-01-25T22:06:13.469Z,4.95
2018-01-25T22:08:41.093Z,5.75
2018-01-25T22:11:08.756Z,6.00
2018-01-25T22:13:36.270Z,6.45
2018-01-25T22:16:03.949Z,6.30
2018-01-25T22:18:31.523Z,5.15
2018-01-25T22:20:59.197Z,6.30
2018-01-25T22:23:26.802Z,6.28
2018-01-25T22:25:54.308Z,6.70
2018-01-25T22:28:21.885Z,5.20
2018-01-25T22:30:49.435Z,5.90
2018-01-25T22:33:16.944Z,6.37
2018-01-25T22:35:44.480Z,6.90
2018-01-25T22:38:12.009Z,6.65
2018-01-25T22:40:39.764Z,6.35
2018-01-25T22:43:07.276Z,6.65
2018-01-25T22:45:34.786Z,7.85
2018-01-25T22:48:02.336Z,5.70
2018-01-25T22:50:29.846Z,6.75
2018-01-25T22:52:57.389Z,6.28
2018-01-25T22:55:24.924Z,6.35
2018-01-25T22:57:52.483Z,6.75
2018-01-25T23:00:31.923Z,6.43
2018-01-25T23:02:59.438Z,6.62
2018-01-25T23:05:26.996Z,6.18
2018-01-25T23:07:54.508Z,7.62
2018-01-25T23:10:22.100Z,7.32
2018-01-25T23:12:49.616Z,5.90
2018-01-25T23:15:17.208Z,6.62
2018-01-25T23:17:44.909Z,5.15
2018-01-25T23:20:12.417Z,6.30
2018-01-25T23:22:39.952Z,7.10
2018-01-25T23:25:07.512Z,6.82
2018-01-25T23:27:35.023Z,6.60
2018-01-25T23:30:02.651Z,6.30
2018-01-25T23:32:30.129Z,6.43
2018-01-25T23:34:57.641Z,6.80
2018-01-25T23:37:25.181Z,6.37
2018-01-25T23:39:52.693Z,6.32
2018-01-25T23:42:20.939Z,6.55
2018-01-25T23:44:48.445Z,6.05
2018-01-25T23:47:15.955Z,6.87
2018-01-25T23:49:43.513Z,7.37
2018-01-25T23:52:11.073Z,6.57
2018-01-25T23:54:38.836Z,7.12
2018-01-25T23:57:06.348Z,6.70
2018-01-25T23:59:33.857Z,5.87
